createdAt,value
2019-03-24T00:00:59.319Z,102698.39
2019-03-24T00:02:11.030Z,102697.92
2019-03-24T00:03:18.476Z,102699.66
2019-03-24T00:04:26.314Z,102700.31
2019-03-24T00:05:34.223Z,102701.05
2019-03-24T00:06:41.834Z,102697.23
2019-03-24T00:07:49.279Z,102701.78
2019-03-24T00:08:56.779Z,102694.58
2019-03-24T00:10:04.701Z,102700.34
2019-03-24T00:11:12.232Z,102699.92
2019-03-24T00:12:20.165Z,102699.09
2019-03-24T00:13:27.725Z,102696.55
2019-03-24T00:14:35.427Z,102698.39
2019-03-24T00:15:42.952Z,102702.22
2019-03-24T00:16:50.399Z,102698.88
2019-03-24T00:17:57.959Z,102697.55
2019-03-24T00:19:05.536Z,102701.73
2019-03-24T00:20:16.031Z,102703.00
2019-03-24T00:21:23.889Z,102703.90
2019-03-24T00:22:31.750Z,102702.56
2019-03-24T00:23:39.315Z,102699.66
2019-03-24T00:24:47.242Z,102708.08
2019-03-24T00:25:54.840Z,102707.17
2019-03-24T00:27:02.758Z,102704.68
2019-03-24T00:28:10.384Z,102709.81
2019-03-24T00:29:17.884Z,102706.22
2019-03-24T00:30:25.717Z,102707.94
2019-03-24T00:31:33.234Z,102698.84
2019-03-24T00:32:41.048Z,102706.89
2019-03-24T00:33:50.813Z,102706.78
2019-03-24T00:35:00.048Z,102709.75
2019-03-24T00:36:07.514Z,102706.56
2019-03-24T00:37:16.466Z,102708.55
2019-03-24T00:38:23.930Z,102703.06
2019-03-24T00:39:32.326Z,102706.87
2019-03-24T00:40:39.828Z,102704.77
2019-03-24T00:41:47.644Z,102704.82
2019-03-24T00:42:55.519Z,102705.34
2019-03-24T00:44:03.396Z,102703.30
2019-03-24T00:45:11.564Z,102700.77
2019-03-24T00:46:19.366Z,102697.45
2019-03-24T00:47:26.817Z,102695.86
2019-03-24T00:48:34.282Z,102694.97
2019-03-24T00:49:41.756Z,102696.30
2019-03-24T00:50:49.305Z,102692.55
2019-03-24T00:51:56.773Z,102693.86
2019-03-24T00:53:04.295Z,102696.41
2019-03-24T00:54:12.058Z,102691.44
2019-03-24T00:55:19.896Z,102692.40
2019-03-24T00:56:27.514Z,102690.61
2019-03-24T00:57:37.375Z,102686.48
2019-03-24T00:58:44.619Z,102686.36
2019-03-24T00:59:52.067Z,102677.06
2019-03-24T01:00:59.536Z,102677.73
2019-03-24T01:02:07.340Z,102674.97
2019-03-24T01:03:15.221Z,102670.33
2019-03-24T01:04:22.718Z,102674.75
2019-03-24T01:05:30.221Z,102667.25
2019-03-24T01:06:38.093Z,102664.61
2019-03-24T01:07:45.961Z,102661.27
2019-03-24T01:08:53.508Z,102662.73
2019-03-24T01:10:01.062Z,102661.81
2019-03-24T01:11:08.739Z,102662.28
2019-03-24T01:12:16.623Z,102668.34
2019-03-24T01:13:24.061Z,102661.20
2019-03-24T01:14:31.520Z,102654.39
2019-03-24T01:15:47.683Z,102648.95
2019-03-24T01:16:49.660Z,102650.69
2019-03-24T01:17:57.475Z,102647.30
2019-03-24T01:19:05.131Z,102644.34
2019-03-24T01:20:14.113Z,102647.69
2019-03-24T01:21:21.658Z,102642.61
2019-03-24T01:22:29.771Z,102644.84
2019-03-24T01:23:37.402Z,102645.20
2019-03-24T01:24:44.830Z,102638.86
2019-03-24T01:25:52.301Z,102637.90
2019-03-24T01:26:59.774Z,102635.31
2019-03-24T01:28:07.224Z,102636.25
2019-03-24T01:29:14.744Z,102639.17
2019-03-24T01:30:22.457Z,102634.69
2019-03-24T01:31:29.987Z,102628.64
2019-03-24T01:32:37.406Z,102631.50
2019-03-24T01:33:44.858Z,102627.81
2019-03-24T01:34:52.701Z,102624.31
2019-03-24T01:36:00.781Z,102635.47
2019-03-24T01:37:08.982Z,102629.80
2019-03-24T01:38:17.083Z,102624.62
2019-03-24T01:39:24.539Z,102632.11
2019-03-24T01:40:32.422Z,102631.64
2019-03-24T01:41:40.428Z,102632.85
2019-03-24T01:42:47.891Z,102632.80
2019-03-24T01:43:55.333Z,102628.99
2019-03-24T01:45:02.955Z,102634.73
2019-03-24T01:46:10.726Z,102638.34
2019-03-24T01:47:18.255Z,102632.17
2019-03-24T01:48:25.688Z,102633.68
2019-03-24T01:49:33.471Z,102639.66
2019-03-24T01:50:40.937Z,102633.27
2019-03-24T01:51:48.393Z,102638.59
2019-03-24T01:52:55.907Z,102635.20
2019-03-24T01:54:03.729Z,102630.34
2019-03-24T01:55:11.422Z,102637.52
2019-03-24T01:56:19.144Z,102632.77
2019-03-24T01:57:26.606Z,102637.03
2019-03-24T01:58:34.289Z,102632.73
2019-03-24T01:59:42.122Z,102634.44
2019-03-24T02:00:49.601Z,102634.69
2019-03-24T02:01:57.108Z,102639.08
2019-03-24T02:03:04.973Z,102640.95
2019-03-24T02:04:12.892Z,102635.93
2019-03-24T02:05:20.841Z,102638.05
2019-03-24T02:06:29.811Z,102638.80
2019-03-24T02:07:37.315Z,102637.52
2019-03-24T02:08:44.805Z,102636.78
2019-03-24T02:09:52.263Z,102635.05
2019-03-24T02:11:00.131Z,102633.05
2019-03-24T02:12:07.899Z,102637.41
2019-03-24T02:13:16.232Z,102634.92
2019-03-24T02:14:24.064Z,102634.81
2019-03-24T02:15:31.551Z,102636.63
2019-03-24T02:16:39.321Z,102629.49
2019-03-24T02:17:46.835Z,102622.58
2019-03-24T02:18:54.711Z,102623.41
2019-03-24T02:20:02.170Z,102626.30
2019-03-24T02:21:09.636Z,102622.14
2019-03-24T02:22:17.122Z,102624.25
2019-03-24T02:23:24.591Z,102623.34
2019-03-24T02:24:33.209Z,102623.76
2019-03-24T02:25:40.855Z,102626.00
2019-03-24T02:26:49.024Z,102621.16
2019-03-24T02:27:56.845Z,102624.95
2019-03-24T02:29:04.668Z,102618.15
2019-03-24T02:30:13.564Z,102618.01
2019-03-24T02:31:21.132Z,102614.89
2019-03-24T02:32:28.618Z,102619.87
2019-03-24T02:33:36.118Z,102616.36
2019-03-24T02:34:43.614Z,102612.30
2019-03-24T02:35:51.111Z,102611.86
2019-03-24T02:36:58.956Z,102606.23
2019-03-24T02:38:06.747Z,102605.65
2019-03-24T02:39:14.297Z,102610.98
2019-03-24T02:40:21.777Z,102608.73
2019-03-24T02:41:29.291Z,102608.09
2019-03-24T02:42:37.158Z,102607.27
2019-03-24T02:43:44.597Z,102607.38
2019-03-24T02:44:52.126Z,102600.41
2019-03-24T02:45:59.653Z,102597.52
2019-03-24T02:47:07.301Z,102604.81
2019-03-24T02:48:15.226Z,102601.78
2019-03-24T02:49:22.741Z,102598.37
2019-03-24T02:50:30.614Z,102605.59
2019-03-24T02:51:38.097Z,102603.84
2019-03-24T02:52:45.946Z,102602.52
2019-03-24T02:53:53.727Z,102607.20
2019-03-24T02:55:01.233Z,102602.62
2019-03-24T02:56:08.664Z,102607.42
2019-03-24T02:57:16.161Z,102598.02
2019-03-24T02:58:23.670Z,102604.59
2019-03-24T02:59:31.168Z,102601.05
2019-03-24T03:00:38.798Z,102603.29
2019-03-24T03:01:46.861Z,102603.53
2019-03-24T03:02:54.660Z,102602.44
2019-03-24T03:04:02.463Z,102601.88
2019-03-24T03:05:10.845Z,102606.16
2019-03-24T03:06:18.334Z,102601.44
2019-03-24T03:07:25.842Z,102602.23
2019-03-24T03:08:33.337Z,102597.81
2019-03-24T03:09:40.862Z,102603.23
2019-03-24T03:10:48.332Z,102598.47
2019-03-24T03:11:56.454Z,102596.28
2019-03-24T03:13:03.940Z,102599.14
2019-03-24T03:14:11.362Z,102599.61
2019-03-24T03:15:19.637Z,102592.37
2019-03-24T03:16:37.895Z,102591.66
2019-03-24T03:17:37.033Z,102589.25
2019-03-24T03:18:44.851Z,102588.11
2019-03-24T03:19:53.816Z,102586.58
2019-03-24T03:21:01.575Z,102584.52
2019-03-24T03:22:09.079Z,102579.52
2019-03-24T03:23:16.654Z,102574.80
2019-03-24T03:24:24.107Z,102567.59
2019-03-24T03:25:31.591Z,102569.21
2019-03-24T03:26:39.462Z,102567.66
2019-03-24T03:27:47.300Z,102567.70
2019-03-24T03:28:55.435Z,102564.73
2019-03-24T03:30:02.976Z,102561.73
2019-03-24T03:31:10.771Z,102560.41
2019-03-24T03:32:19.057Z,102561.38
2019-03-24T03:33:26.919Z,102561.80
2019-03-24T03:34:34.822Z,102559.76
2019-03-24T03:35:42.343Z,102560.11
2019-03-24T03:36:50.463Z,102565.30
2019-03-24T03:37:57.992Z,102564.44
2019-03-24T03:39:07.489Z,102558.38
2019-03-24T03:40:15.105Z,102559.89
2019-03-24T03:41:22.920Z,102558.33
2019-03-24T03:42:30.425Z,102562.24
2019-03-24T03:43:38.260Z,102561.33
2019-03-24T03:44:45.741Z,102556.51
2019-03-24T03:45:53.390Z,102560.19
2019-03-24T03:47:01.614Z,102557.72
2019-03-24T03:48:09.103Z,102559.04
2019-03-24T03:49:17.016Z,102567.08
2019-03-24T03:50:24.844Z,102553.92
2019-03-24T03:51:32.757Z,102556.58
2019-03-24T03:52:40.301Z,102560.17
2019-03-24T03:53:47.764Z,102564.20
2019-03-24T03:54:55.663Z,102557.82
2019-03-24T03:56:03.166Z,102560.21
2019-03-24T03:57:10.633Z,102556.00
2019-03-24T03:58:18.093Z,102557.77
2019-03-24T03:59:25.622Z,102556.32
2019-03-24T04:00:37.340Z,102563.97
2019-03-24T04:01:45.148Z,102569.45
2019-03-24T04:02:52.616Z,102559.20
2019-03-24T04:04:00.096Z,102558.73
2019-03-24T04:05:08.348Z,102555.29
2019-03-24T04:06:16.333Z,102558.97
2019-03-24T04:07:24.148Z,102561.14
2019-03-24T04:08:32.566Z,102559.58
2019-03-24T04:09:40.303Z,102564.70
2019-03-24T04:10:48.780Z,102562.23
2019-03-24T04:11:56.305Z,102560.96
2019-03-24T04:13:03.782Z,102560.55
2019-03-24T04:14:11.479Z,102559.39
2019-03-24T04:15:18.917Z,102558.87
2019-03-24T04:16:26.427Z,102560.48
2019-03-24T04:17:34.281Z,102557.82
2019-03-24T04:18:41.809Z,102564.64
2019-03-24T04:19:49.914Z,102560.38
2019-03-24T04:20:57.442Z,102562.88
2019-03-24T04:22:04.948Z,102561.80
2019-03-24T04:23:13.188Z,102559.14
2019-03-24T04:24:20.694Z,102557.47
2019-03-24T04:25:28.189Z,102558.47
2019-03-24T04:26:35.727Z,102556.77
2019-03-24T04:27:43.628Z,102557.55
2019-03-24T04:28:51.559Z,102550.55
2019-03-24T04:29:59.443Z,102557.52
2019-03-24T04:31:07.003Z,102563.31
2019-03-24T04:32:14.486Z,102562.43
2019-03-24T04:33:21.992Z,102560.53
2019-03-24T04:34:29.564Z,102560.53
2019-03-24T04:35:37.446Z,102559.40
2019-03-24T04:36:45.374Z,102559.88
2019-03-24T04:37:52.849Z,102557.38
2019-03-24T04:39:00.528Z,102551.53
2019-03-24T04:40:08.685Z,102551.59
2019-03-24T04:41:16.160Z,102549.00
2019-03-24T04:42:23.644Z,102547.58
2019-03-24T04:43:31.564Z,102553.36
2019-03-24T04:44:39.144Z,102557.44
2019-03-24T04:45:46.974Z,102555.13
2019-03-24T04:46:54.814Z,102557.85
2019-03-24T04:48:02.980Z,102552.45
2019-03-24T04:49:10.522Z,102550.98
2019-03-24T04:50:18.035Z,102546.09
2019-03-24T04:51:25.491Z,102541.09
2019-03-24T04:52:33.018Z,102544.81
2019-03-24T04:53:40.956Z,102541.95
2019-03-24T04:54:48.529Z,102541.09
2019-03-24T04:55:56.364Z,102545.23
2019-03-24T04:57:04.046Z,102538.00
2019-03-24T04:58:11.946Z,102544.44
2019-03-24T04:59:19.399Z,102542.36
2019-03-24T05:00:38.329Z,102544.73
2019-03-24T05:01:45.847Z,102539.39
2019-03-24T05:02:53.332Z,102539.48
2019-03-24T05:04:01.252Z,102544.09
2019-03-24T05:05:09.203Z,102540.24
2019-03-24T05:06:18.027Z,102543.18
2019-03-24T05:07:26.979Z,102543.18
2019-03-24T05:08:35.631Z,102538.28
2019-03-24T05:09:43.615Z,102537.44
2019-03-24T05:10:51.127Z,102533.08
2019-03-24T05:11:58.768Z,102533.10
2019-03-24T05:13:06.247Z,102530.84
2019-03-24T05:14:13.714Z,102522.06
2019-03-24T05:15:21.217Z,102526.92
2019-03-24T05:16:29.124Z,102526.55
2019-03-24T05:17:36.773Z,102524.80
2019-03-24T05:18:44.618Z,102525.37
2019-03-24T05:19:52.091Z,102518.05
2019-03-24T05:20:59.920Z,102519.23
2019-03-24T05:22:07.346Z,102514.18
2019-03-24T05:23:14.827Z,102518.20
2019-03-24T05:24:22.689Z,102521.70
2019-03-24T05:25:30.465Z,102523.16
2019-03-24T05:26:37.986Z,102521.95
2019-03-24T05:27:45.502Z,102515.05
2019-03-24T05:28:53.010Z,102515.27
2019-03-24T05:30:00.530Z,102509.92
2019-03-24T05:31:07.981Z,102512.03
2019-03-24T05:32:15.965Z,102503.80
2019-03-24T05:33:23.491Z,102502.72
2019-03-24T05:34:31.772Z,102502.72
2019-03-24T05:35:39.716Z,102505.81
2019-03-24T05:36:47.612Z,102503.89
2019-03-24T05:37:55.493Z,102507.02
2019-03-24T05:39:04.925Z,102500.95
2019-03-24T05:40:12.629Z,102499.34
2019-03-24T05:41:20.093Z,102496.04
2019-03-24T05:42:28.030Z,102502.42
2019-03-24T05:43:35.858Z,102495.39
2019-03-24T05:44:43.852Z,102501.88
2019-03-24T05:45:51.286Z,102502.44
2019-03-24T05:46:58.774Z,102505.38
2019-03-24T05:48:06.571Z,102499.61
2019-03-24T05:49:14.488Z,102500.63
2019-03-24T05:50:22.359Z,102501.05
2019-03-24T05:51:29.911Z,102502.43
2019-03-24T05:52:37.450Z,102500.88
2019-03-24T05:53:44.921Z,102504.73
2019-03-24T05:54:52.398Z,102504.36
2019-03-24T05:56:00.280Z,102506.77
2019-03-24T05:57:07.968Z,102500.09
2019-03-24T05:58:15.460Z,102497.14
2019-03-24T05:59:23.267Z,102496.84
2019-03-24T06:00:30.782Z,102499.37
2019-03-24T06:01:40.311Z,102499.12
2019-03-24T06:02:48.310Z,102500.50
2019-03-24T06:03:56.191Z,102501.96
2019-03-24T06:05:04.004Z,102505.92
2019-03-24T06:06:11.471Z,102511.95
2019-03-24T06:07:18.972Z,102508.84
2019-03-24T06:08:26.565Z,102508.78
2019-03-24T06:09:34.502Z,102507.14
2019-03-24T06:10:42.322Z,102503.59
2019-03-24T06:11:50.203Z,102502.15
2019-03-24T06:12:57.660Z,102502.92
2019-03-24T06:14:05.710Z,102498.22
2019-03-24T06:15:13.571Z,102495.21
2019-03-24T06:16:21.403Z,102496.95
2019-03-24T06:17:28.875Z,102498.16
2019-03-24T06:18:36.758Z,102495.33
2019-03-24T06:19:44.634Z,102492.97
2019-03-24T06:20:52.412Z,102487.98
2019-03-24T06:22:00.662Z,102490.27
2019-03-24T06:23:08.479Z,102489.85
2019-03-24T06:24:15.960Z,102490.81
2019-03-24T06:25:23.423Z,102481.59
2019-03-24T06:26:31.652Z,102481.34
2019-03-24T06:27:39.234Z,102478.07
2019-03-24T06:28:47.079Z,102478.07
2019-03-24T06:29:54.560Z,102480.68
2019-03-24T06:31:02.311Z,102482.95
2019-03-24T06:32:10.055Z,102480.53
2019-03-24T06:33:17.563Z,102479.75
2019-03-24T06:34:25.482Z,102473.53
2019-03-24T06:35:32.925Z,102471.91
2019-03-24T06:36:40.832Z,102468.64
2019-03-24T06:37:48.324Z,102467.95
2019-03-24T06:38:55.916Z,102469.77
2019-03-24T06:40:03.390Z,102471.52
2019-03-24T06:41:10.874Z,102470.30
2019-03-24T06:42:18.362Z,102472.83
2019-03-24T06:43:26.370Z,102474.31
2019-03-24T06:44:33.843Z,102476.25
2019-03-24T06:45:41.777Z,102468.02
2019-03-24T06:46:49.237Z,102471.28
2019-03-24T06:47:58.160Z,102469.22
2019-03-24T06:49:06.030Z,102468.70
2019-03-24T06:50:13.963Z,102465.03
2019-03-24T06:51:21.894Z,102465.28
2019-03-24T06:52:29.355Z,102464.50
2019-03-24T06:53:37.167Z,102466.37
2019-03-24T06:54:44.617Z,102464.07
2019-03-24T06:55:52.061Z,102469.11
2019-03-24T06:56:59.662Z,102466.86
2019-03-24T06:58:07.237Z,102473.84
2019-03-24T06:59:14.994Z,102474.95
2019-03-24T07:00:22.787Z,102476.86
2019-03-24T07:01:30.580Z,102477.45
2019-03-24T07:02:38.264Z,102473.82
2019-03-24T07:03:46.101Z,102471.39
2019-03-24T07:04:54.621Z,102477.45
2019-03-24T07:06:02.530Z,102477.05
2019-03-24T07:07:10.087Z,102483.86
2019-03-24T07:08:17.573Z,102484.28
2019-03-24T07:09:25.963Z,102485.60
2019-03-24T07:10:33.447Z,102491.73
2019-03-24T07:11:40.921Z,102490.52
2019-03-24T07:12:48.653Z,102491.52
2019-03-24T07:13:56.201Z,102492.84
2019-03-24T07:15:03.701Z,102495.95
2019-03-24T07:16:11.214Z,102495.95
2019-03-24T07:17:19.524Z,102499.97
2019-03-24T07:18:28.127Z,102502.08
2019-03-24T07:19:35.613Z,102496.12
2019-03-24T07:20:43.088Z,102499.91
2019-03-24T07:21:50.566Z,102499.97
2019-03-24T07:22:58.005Z,102500.97
2019-03-24T07:24:05.834Z,102505.36
2019-03-24T07:25:13.943Z,102506.19
2019-03-24T07:26:22.140Z,102508.68
2019-03-24T07:27:29.748Z,102507.78
2019-03-24T07:28:37.236Z,102508.31
2019-03-24T07:29:45.181Z,102509.20
2019-03-24T07:30:52.645Z,102516.92
2019-03-24T07:32:00.909Z,102515.33
2019-03-24T07:33:08.480Z,102511.25
2019-03-24T07:34:15.966Z,102512.85
2019-03-24T07:35:23.422Z,102505.56
2019-03-24T07:36:30.907Z,102505.93
2019-03-24T07:37:38.661Z,102507.25
2019-03-24T07:38:47.198Z,102502.27
2019-03-24T07:39:54.671Z,102507.87
2019-03-24T07:41:02.575Z,102507.17
2019-03-24T07:42:10.795Z,102506.47
2019-03-24T07:43:19.024Z,102507.52
2019-03-24T07:44:27.306Z,102508.55
2019-03-24T07:45:35.099Z,102506.63
2019-03-24T07:46:42.550Z,102509.37
2019-03-24T07:47:50.234Z,102506.12
2019-03-24T07:48:58.095Z,102507.91
2019-03-24T07:50:06.874Z,102507.16
2019-03-24T07:51:14.323Z,102500.86
2019-03-24T07:52:21.763Z,102504.34
2019-03-24T07:53:29.753Z,102493.41
2019-03-24T07:54:37.281Z,102496.52
2019-03-24T07:55:44.782Z,102494.02
2019-03-24T07:56:52.270Z,102496.31
2019-03-24T07:58:00.164Z,102498.70
2019-03-24T07:59:08.189Z,102502.35
2019-03-24T08:00:20.368Z,102501.72
2019-03-24T08:01:28.987Z,102509.59
2019-03-24T08:02:36.832Z,102506.88
2019-03-24T08:03:44.301Z,102507.39
2019-03-24T08:04:52.135Z,102515.27
2019-03-24T08:05:59.651Z,102522.05
2019-03-24T08:07:07.933Z,102521.50
2019-03-24T08:08:15.924Z,102523.92
2019-03-24T08:09:23.816Z,102524.17
2019-03-24T08:10:31.678Z,102514.30
2019-03-24T08:11:39.164Z,102511.52
2019-03-24T08:12:46.745Z,102510.13
2019-03-24T08:13:54.446Z,102510.09
2019-03-24T08:15:01.963Z,102507.63
2019-03-24T08:16:09.774Z,102499.23
2019-03-24T08:17:17.274Z,102501.81
2019-03-24T08:18:29.820Z,102499.81
2019-03-24T08:19:34.017Z,102496.88
2019-03-24T08:20:41.762Z,102491.76
2019-03-24T08:21:49.309Z,102491.21
2019-03-24T08:22:57.227Z,102478.15
2019-03-24T08:24:04.729Z,102479.45
2019-03-24T08:25:12.537Z,102475.48
2019-03-24T08:26:20.325Z,102470.63
2019-03-24T08:27:28.124Z,102470.23
2019-03-24T08:28:35.791Z,102467.37
2019-03-24T08:29:43.257Z,102464.37
2019-03-24T08:30:50.774Z,102465.44
2019-03-24T08:31:58.394Z,102467.24
2019-03-24T08:33:06.205Z,102450.55
2019-03-24T08:34:13.752Z,102456.23
2019-03-24T08:35:21.331Z,102449.86
2019-03-24T08:36:28.869Z,102452.55
2019-03-24T08:37:37.259Z,102452.38
2019-03-24T08:38:45.458Z,102458.05
2019-03-24T08:39:53.344Z,102458.55
2019-03-24T08:41:01.264Z,102450.84
2019-03-24T08:42:08.949Z,102446.17
2019-03-24T08:43:16.820Z,102439.07
2019-03-24T08:44:24.284Z,102440.50
2019-03-24T08:45:32.486Z,102439.25
2019-03-24T08:46:40.404Z,102440.09
2019-03-24T08:47:48.044Z,102444.05
2019-03-24T08:48:56.225Z,102445.03
2019-03-24T08:50:03.685Z,102452.48
2019-03-24T08:51:11.506Z,102458.58
2019-03-24T08:52:19.039Z,102456.50
2019-03-24T08:53:27.044Z,102463.89
2019-03-24T08:54:34.569Z,102461.10
2019-03-24T08:55:42.578Z,102465.50
2019-03-24T08:56:50.477Z,102462.59
2019-03-24T08:57:58.519Z,102459.49
2019-03-24T08:59:06.296Z,102467.00
2019-03-24T09:00:14.223Z,102474.38
2019-03-24T09:01:22.071Z,102472.30
2019-03-24T09:02:29.566Z,102473.27
2019-03-24T09:03:38.806Z,102475.56
2019-03-24T09:04:46.363Z,102473.50
2019-03-24T09:05:54.232Z,102478.72
2019-03-24T09:07:01.853Z,102477.14
2019-03-24T09:08:09.590Z,102473.95
2019-03-24T09:09:17.786Z,102478.79
2019-03-24T09:10:25.279Z,102469.88
2019-03-24T09:11:33.174Z,102475.96
2019-03-24T09:12:41.045Z,102484.13
2019-03-24T09:13:48.921Z,102471.80
2019-03-24T09:14:56.647Z,102482.58
2019-03-24T09:16:04.118Z,102483.89
2019-03-24T09:17:12.408Z,102483.08
2019-03-24T09:18:19.875Z,102481.73
2019-03-24T09:19:28.029Z,102482.62
2019-03-24T09:20:41.555Z,102483.94
2019-03-24T09:21:45.382Z,102476.66
2019-03-24T09:22:52.865Z,102473.63
2019-03-24T09:24:00.756Z,102473.61
2019-03-24T09:25:08.710Z,102465.48
2019-03-24T09:26:16.539Z,102460.44
2019-03-24T09:27:24.298Z,102456.64
2019-03-24T09:28:33.355Z,102453.20
2019-03-24T09:29:40.864Z,102450.66
2019-03-24T09:30:48.337Z,102454.53
2019-03-24T09:31:56.261Z,102456.62
2019-03-24T09:33:04.275Z,102453.63
2019-03-24T09:34:12.204Z,102449.82
2019-03-24T09:35:20.040Z,102446.02
2019-03-24T09:36:27.955Z,102443.47
2019-03-24T09:37:35.709Z,102433.67
2019-03-24T09:38:43.267Z,102434.53
2019-03-24T09:39:50.753Z,102438.84
2019-03-24T09:40:58.287Z,102439.27
2019-03-24T09:42:06.018Z,102437.14
2019-03-24T09:43:13.513Z,102434.55
2019-03-24T09:44:21.031Z,102427.72
2019-03-24T09:45:28.494Z,102422.22
2019-03-24T09:46:36.330Z,102420.08
2019-03-24T09:47:44.560Z,102422.19
2019-03-24T09:49:02.462Z,102419.20
2019-03-24T09:50:01.651Z,102425.14
2019-03-24T09:51:09.703Z,102422.14
2019-03-24T09:52:17.516Z,102411.44
2019-03-24T09:53:25.268Z,102419.13
2019-03-24T09:54:34.028Z,102415.30
2019-03-24T09:55:41.729Z,102409.28
2019-03-24T09:56:49.473Z,102408.88
2019-03-24T09:57:58.025Z,102406.69
2019-03-24T09:59:05.622Z,102405.41
2019-03-24T10:00:14.200Z,102411.77
2019-03-24T10:01:22.009Z,102413.96
2019-03-24T10:02:29.991Z,102413.14
2019-03-24T10:03:38.284Z,102405.86
2019-03-24T10:04:45.835Z,102412.32
2019-03-24T10:05:53.671Z,102413.61
2019-03-24T10:07:01.304Z,102413.19
2019-03-24T10:08:09.097Z,102417.02
2019-03-24T10:09:17.207Z,102408.46
2019-03-24T10:10:24.686Z,102412.75
2019-03-24T10:11:32.274Z,102408.95
2019-03-24T10:12:40.439Z,102405.11
2019-03-24T10:13:48.065Z,102398.29
2019-03-24T10:14:56.274Z,102395.75
2019-03-24T10:16:04.020Z,102397.03
2019-03-24T10:17:11.763Z,102391.47
2019-03-24T10:18:19.480Z,102391.45
2019-03-24T10:19:27.173Z,102387.18
2019-03-24T10:20:35.573Z,102389.72
2019-03-24T10:21:43.499Z,102389.23
2019-03-24T10:22:51.107Z,102387.06
2019-03-24T10:23:59.575Z,102382.83
2019-03-24T10:25:07.635Z,102386.66
2019-03-24T10:26:15.950Z,102393.44
2019-03-24T10:27:23.854Z,102395.98
2019-03-24T10:28:32.166Z,102397.62
2019-03-24T10:29:39.776Z,102393.73
2019-03-24T10:30:47.359Z,102397.55
2019-03-24T10:31:54.821Z,102394.95
2019-03-24T10:33:02.312Z,102395.38
2019-03-24T10:34:09.803Z,102400.48
2019-03-24T10:35:17.426Z,102400.86
2019-03-24T10:36:25.025Z,102409.25
2019-03-24T10:37:33.428Z,102404.54
2019-03-24T10:38:41.103Z,102398.63
2019-03-24T10:39:48.843Z,102406.81
2019-03-24T10:40:56.522Z,102402.16
2019-03-24T10:42:05.075Z,102402.15
2019-03-24T10:43:13.146Z,102401.16
2019-03-24T10:44:21.146Z,102402.78
2019-03-24T10:45:29.544Z,102404.55
2019-03-24T10:46:37.351Z,102407.59
2019-03-24T10:47:46.143Z,102409.36
2019-03-24T10:48:54.363Z,102408.16
2019-03-24T10:50:02.528Z,102404.81
2019-03-24T10:51:11.189Z,102404.05
2019-03-24T10:52:18.960Z,102400.16
2019-03-24T10:53:26.982Z,102400.47
2019-03-24T10:54:34.686Z,102396.55
2019-03-24T10:55:42.592Z,102400.39
2019-03-24T10:56:50.684Z,102399.18
2019-03-24T10:57:59.302Z,102396.70
2019-03-24T10:59:07.022Z,102398.41
2019-03-24T11:00:18.829Z,102405.33
2019-03-24T11:01:26.958Z,102407.92
2019-03-24T11:02:34.648Z,102406.27
2019-03-24T11:03:42.445Z,102410.13
2019-03-24T11:04:50.497Z,102405.45
2019-03-24T11:05:59.029Z,102400.75
2019-03-24T11:07:07.201Z,102404.16
2019-03-24T11:08:15.821Z,102404.59
2019-03-24T11:09:23.588Z,102401.55
2019-03-24T11:10:31.380Z,102395.59
2019-03-24T11:11:39.429Z,102391.33
2019-03-24T11:12:47.289Z,102390.91
2019-03-24T11:13:58.267Z,102394.38
2019-03-24T11:15:07.937Z,102390.09
2019-03-24T11:16:16.150Z,102384.99
2019-03-24T11:17:24.899Z,102387.56
2019-03-24T11:18:33.368Z,102379.91
2019-03-24T11:19:40.859Z,102383.36
2019-03-24T11:20:48.372Z,102374.40
2019-03-24T11:21:56.104Z,102382.53
2019-03-24T11:23:03.804Z,102388.09
2019-03-24T11:24:11.417Z,102385.12
2019-03-24T11:25:19.797Z,102382.11
2019-03-24T11:26:28.162Z,102388.11
2019-03-24T11:27:35.770Z,102390.23
2019-03-24T11:28:43.443Z,102385.55
2019-03-24T11:29:51.410Z,102382.13
2019-03-24T11:30:59.532Z,102380.41
2019-03-24T11:32:07.690Z,102380.42
2019-03-24T11:33:16.441Z,102379.98
2019-03-24T11:34:24.478Z,102374.39
2019-03-24T11:35:32.375Z,102371.84
2019-03-24T11:36:40.204Z,102382.51
2019-03-24T11:37:47.701Z,102382.48
2019-03-24T11:38:55.693Z,102383.36
2019-03-24T11:40:04.000Z,102379.11
2019-03-24T11:41:11.540Z,102379.53
2019-03-24T11:42:19.049Z,102377.83
2019-03-24T11:43:26.575Z,102374.86
2019-03-24T11:44:34.891Z,102381.70
2019-03-24T11:45:42.430Z,102379.12
2019-03-24T11:46:49.964Z,102375.70
2019-03-24T11:47:57.487Z,102375.27
2019-03-24T11:49:05.643Z,102372.69
2019-03-24T11:50:13.768Z,102373.13
2019-03-24T11:51:21.323Z,102374.39
2019-03-24T11:52:28.893Z,102369.72
2019-03-24T11:53:36.755Z,102366.30
2019-03-24T11:54:44.638Z,102365.45
2019-03-24T11:55:52.514Z,102365.86
2019-03-24T11:57:00.725Z,102356.43
2019-03-24T11:58:08.300Z,102362.02
2019-03-24T11:59:16.251Z,102362.00
2019-03-24T12:00:40.351Z,102366.66
2019-03-24T12:01:48.145Z,102357.20
2019-03-24T12:02:55.620Z,102353.72
2019-03-24T12:04:03.195Z,102352.07
2019-03-24T12:05:11.816Z,102345.65
2019-03-24T12:06:19.875Z,102349.42
2019-03-24T12:07:28.247Z,102339.94
2019-03-24T12:08:35.880Z,102342.46
2019-03-24T12:09:43.918Z,102340.73
2019-03-24T12:10:51.413Z,102341.63
2019-03-24T12:11:59.061Z,102337.77
2019-03-24T12:13:07.007Z,102339.48
2019-03-24T12:14:14.558Z,102333.47
2019-03-24T12:15:22.347Z,102324.23
2019-03-24T12:16:31.146Z,102322.58
2019-03-24T12:17:39.135Z,102322.58
2019-03-24T12:18:47.177Z,102321.29
2019-03-24T12:19:57.078Z,102320.05
2019-03-24T12:21:04.827Z,102319.63
2019-03-24T12:22:12.899Z,102316.62
2019-03-24T12:23:21.085Z,102319.64
2019-03-24T12:24:28.657Z,102322.23
2019-03-24T12:25:36.994Z,102318.80
2019-03-24T12:26:44.795Z,102314.06
2019-03-24T12:27:52.313Z,102309.30
2019-03-24T12:29:00.437Z,102308.93
2019-03-24T12:30:10.213Z,102308.93
2019-03-24T12:31:17.688Z,102305.05
2019-03-24T12:32:25.359Z,102299.47
2019-03-24T12:33:33.854Z,102298.98
2019-03-24T12:34:41.375Z,102303.63
2019-03-24T12:35:48.884Z,102303.23
2019-03-24T12:36:57.080Z,102302.30
2019-03-24T12:38:05.089Z,102301.84
2019-03-24T12:39:12.658Z,102294.96
2019-03-24T12:40:20.820Z,102289.84
2019-03-24T12:41:30.506Z,102287.47
2019-03-24T12:42:38.067Z,102284.10
2019-03-24T12:43:46.806Z,102284.95
2019-03-24T12:44:54.378Z,102282.34
2019-03-24T12:46:02.338Z,102281.45
2019-03-24T12:47:09.878Z,102291.67
2019-03-24T12:48:17.849Z,102285.64
2019-03-24T12:49:25.813Z,102287.73
2019-03-24T12:50:33.617Z,102280.84
2019-03-24T12:51:41.269Z,102280.84
2019-03-24T12:52:49.444Z,102276.91
2019-03-24T12:53:57.412Z,102265.73
2019-03-24T12:55:05.054Z,102266.59